createdAt,value
2022-12-14T00:02:00.418Z,85.80
2022-12-14T00:04:28.725Z,85.60
2022-12-14T00:06:56.990Z,85.50
2022-12-14T00:09:26.772Z,85.50
2022-12-14T00:11:55.131Z,85.60
2022-12-14T00:14:23.517Z,85.60
2022-12-14T00:16:52.046Z,85.50
2022-12-14T00:19:20.290Z,85.50
2022-12-14T00:21:48.513Z,85.50
2022-12-14T00:24:16.809Z,85.50
2022-12-14T00:26:46.467Z,85.50
2022-12-14T00:29:14.794Z,85.50
2022-12-14T00:31:43.226Z,85.50
2022-12-14T00:34:17.188Z,85.50
2022-12-14T00:36:45.480Z,85.50
2022-12-14T00:39:13.698Z,85.50
2022-12-14T00:41:41.941Z,85.50
2022-12-14T00:44:11.601Z,85.40
2022-12-14T00:46:40.010Z,85.40
2022-12-14T00:49:09.277Z,85.40
2022-12-14T00:51:37.586Z,85.40
2022-12-14T00:54:06.036Z,85.40
2022-12-14T00:56:34.530Z,85.40
2022-12-14T00:59:02.882Z,85.40
2022-12-14T01:01:32.590Z,85.40
2022-12-14T01:04:14.879Z,85.60
2022-12-14T01:06:43.482Z,85.70
2022-12-14T01:09:11.842Z,85.80
2022-12-14T01:11:40.379Z,85.80
2022-12-14T01:14:09.375Z,85.80
2022-12-14T01:16:39.355Z,86.00
2022-12-14T01:19:07.792Z,86.00
2022-12-14T01:21:36.185Z,86.00
2022-12-14T01:24:06.602Z,86.10
2022-12-14T01:26:39.540Z,86.10
2022-12-14T01:29:08.981Z,86.10
2022-12-14T01:31:39.468Z,86.20
2022-12-14T01:34:08.356Z,86.20
2022-12-14T01:36:37.784Z,86.30
2022-12-14T01:39:09.531Z,86.30
2022-12-14T01:41:39.598Z,86.30
2022-12-14T01:44:40.870Z,86.30
2022-12-14T01:47:18.663Z,86.30
2022-12-14T01:49:50.359Z,86.20
2022-12-14T01:52:22.204Z,86.10
2022-12-14T01:54:54.114Z,86.10
2022-12-14T01:57:27.466Z,86.10
2022-12-14T02:00:00.986Z,86.10
2022-12-14T02:02:35.705Z,86.10
2022-12-14T02:05:06.874Z,86.10
2022-12-14T02:07:35.629Z,86.10
2022-12-14T02:10:06.784Z,86.00
2022-12-14T02:12:39.950Z,86.20
2022-12-14T02:15:09.055Z,86.20
2022-12-14T02:17:39.295Z,86.10
2022-12-14T02:20:08.590Z,86.10
2022-12-14T02:23:12.202Z,86.20
2022-12-14T02:26:23.805Z,86.20
2022-12-14T02:29:23.586Z,86.30
2022-12-14T02:31:59.429Z,86.30
2022-12-14T02:34:37.910Z,86.30
2022-12-14T02:37:15.229Z,86.70
2022-12-14T02:39:51.095Z,86.70
2022-12-14T02:42:27.271Z,86.60
2022-12-14T02:45:04.349Z,86.80
2022-12-14T02:47:41.222Z,87.20
2022-12-14T02:50:17.698Z,87.40
2022-12-14T02:52:53.255Z,87.40
2022-12-14T02:55:27.177Z,87.50
2022-12-14T02:58:01.272Z,87.60
2022-12-14T03:00:33.737Z,88.00
2022-12-14T03:03:03.415Z,88.30
2022-12-14T03:05:32.012Z,88.80
2022-12-14T03:08:03.107Z,88.90
2022-12-14T03:10:37.811Z,89.00
2022-12-14T03:13:14.718Z,89.60
2022-12-14T03:15:47.943Z,89.60
2022-12-14T03:18:20.373Z,89.70
2022-12-14T03:20:52.465Z,89.60
2022-12-14T03:23:25.117Z,89.50
2022-12-14T03:25:58.631Z,89.60
2022-12-14T03:28:35.754Z,89.60
2022-12-14T03:31:08.655Z,89.60
2022-12-14T03:33:39.317Z,89.60
2022-12-14T03:36:15.007Z,89.60
2022-12-14T03:38:45.288Z,89.90
2022-12-14T03:41:20.355Z,90.00
2022-12-14T03:44:09.539Z,90.00
2022-12-14T03:46:46.937Z,90.10
2022-12-14T03:49:21.232Z,90.10
2022-12-14T03:52:02.197Z,90.30
2022-12-14T03:54:40.924Z,90.30
2022-12-14T03:57:18.495Z,90.30
2022-12-14T03:59:53.880Z,90.30
2022-12-14T04:02:28.071Z,90.30
2022-12-14T04:05:02.067Z,90.20
2022-12-14T04:07:37.825Z,90.30
2022-12-14T04:10:26.975Z,90.30
2022-12-14T04:13:18.428Z,90.20
2022-12-14T04:16:05.718Z,90.20
2022-12-14T04:18:59.818Z,90.20
2022-12-14T04:21:37.882Z,90.20
2022-12-14T04:24:28.733Z,90.20
2022-12-14T04:27:00.811Z,90.20
2022-12-14T04:29:49.108Z,90.20
2022-12-14T04:32:22.220Z,90.20
2022-12-14T04:34:55.945Z,90.20
2022-12-14T04:37:28.048Z,90.10
2022-12-14T04:40:00.189Z,90.10
2022-12-14T04:42:31.070Z,90.00
2022-12-14T04:45:03.469Z,90.00
2022-12-14T04:47:36.225Z,90.00
2022-12-14T04:50:13.619Z,90.00
2022-12-14T04:52:46.567Z,89.90
2022-12-14T04:55:22.019Z,89.90
2022-12-14T04:57:56.763Z,89.90
2022-12-14T05:00:25.291Z,90.00
2022-12-14T05:03:14.634Z,90.00
2022-12-14T05:05:58.117Z,90.00
2022-12-14T05:08:49.113Z,89.90
2022-12-14T05:14:20.933Z,89.90
2022-12-14T05:16:50.552Z,89.90
2022-12-14T05:19:18.931Z,89.90
2022-12-14T05:21:48.685Z,89.80
2022-12-14T05:24:17.839Z,89.90
2022-12-14T05:26:46.427Z,89.90
2022-12-14T05:29:15.181Z,89.80
2022-12-14T05:31:49.073Z,89.80
2022-12-14T05:34:18.238Z,89.80
2022-12-14T05:36:46.521Z,89.90
2022-12-14T05:39:16.697Z,89.80
2022-12-14T05:41:45.499Z,89.80
2022-12-14T05:44:13.768Z,89.80
2022-12-14T05:46:42.068Z,89.80
2022-12-14T05:49:10.846Z,89.80
2022-12-14T05:51:39.099Z,89.90
2022-12-14T05:54:07.483Z,89.80
2022-12-14T05:56:37.364Z,89.70
2022-12-14T05:59:05.621Z,89.60
2022-12-14T06:01:34.143Z,89.50
2022-12-14T06:04:02.385Z,89.60
2022-12-14T06:06:30.694Z,89.40
2022-12-14T06:08:58.947Z,89.20
2022-12-14T06:11:27.518Z,89.10
2022-12-14T06:13:57.143Z,88.80
2022-12-14T06:16:27.911Z,88.90
2022-12-14T06:18:57.412Z,88.80
2022-12-14T06:21:27.370Z,89.10
2022-12-14T06:23:56.720Z,88.90
2022-12-14T06:26:25.566Z,88.90
2022-12-14T06:28:53.995Z,89.00
2022-12-14T06:31:25.582Z,88.90
2022-12-14T06:33:54.745Z,88.90
2022-12-14T06:36:24.879Z,89.00
2022-12-14T06:38:54.011Z,89.10
2022-12-14T06:41:23.996Z,89.00
2022-12-14T06:43:52.408Z,88.90
2022-12-14T06:46:24.670Z,88.80
2022-12-14T06:48:54.447Z,88.90
2022-12-14T06:51:24.400Z,88.80
2022-12-14T06:53:53.124Z,88.60
2022-12-14T06:56:23.025Z,88.50
2022-12-14T06:58:51.437Z,89.00
2022-12-14T07:01:22.005Z,88.90
2022-12-14T07:03:53.584Z,89.10
2022-12-14T07:06:22.358Z,90.00
2022-12-14T07:08:51.163Z,89.20
2022-12-14T07:11:19.406Z,88.90
2022-12-14T07:13:48.934Z,89.40
2022-12-14T07:16:20.456Z,89.40
2022-12-14T07:18:52.181Z,89.50
2022-12-14T07:21:21.872Z,89.30
2022-12-14T07:23:52.372Z,88.90
2022-12-14T07:26:23.261Z,88.80
2022-12-14T07:28:52.120Z,88.90
2022-12-14T07:31:23.301Z,89.10
2022-12-14T07:33:54.348Z,89.00
2022-12-14T07:36:24.175Z,88.90
2022-12-14T07:38:53.254Z,89.00
2022-12-14T07:41:23.758Z,89.10
2022-12-14T07:43:53.003Z,88.90
2022-12-14T07:46:26.429Z,88.90
2022-12-14T07:48:57.787Z,88.90
2022-12-14T07:51:28.621Z,88.90
2022-12-14T07:53:57.575Z,89.00
2022-12-14T07:56:27.607Z,89.10
2022-12-14T07:58:56.719Z,88.70
2022-12-14T08:01:27.295Z,88.80
2022-12-14T08:03:59.647Z,88.90
2022-12-14T08:06:29.308Z,89.50
2022-12-14T08:08:58.192Z,88.50
2022-12-14T08:11:26.891Z,88.30
2022-12-14T08:13:55.558Z,88.30
2022-12-14T08:16:24.616Z,88.40
2022-12-14T08:18:54.985Z,88.20
2022-12-14T08:21:25.909Z,88.50
2022-12-14T08:23:55.654Z,89.00
2022-12-14T08:26:30.042Z,89.10
2022-12-14T08:29:01.977Z,89.00
2022-12-14T08:31:30.590Z,88.30
2022-12-14T08:34:00.782Z,88.10
2022-12-14T08:36:32.783Z,87.80
2022-12-14T08:39:03.068Z,87.90
2022-12-14T08:41:33.674Z,87.50
2022-12-14T08:44:03.762Z,86.90
2022-12-14T08:46:33.529Z,86.90
2022-12-14T08:49:02.520Z,87.00
2022-12-14T08:51:32.186Z,86.50
2022-12-14T08:54:00.470Z,85.60
2022-12-14T08:56:29.790Z,85.80
2022-12-14T08:58:58.750Z,85.60
2022-12-14T09:01:33.383Z,85.80
2022-12-14T09:04:07.957Z,85.00
2022-12-14T09:06:39.815Z,83.90
2022-12-14T09:09:15.750Z,84.00
2022-12-14T09:11:45.202Z,84.30
2022-12-14T09:14:13.665Z,83.90
2022-12-14T09:16:42.128Z,83.70
2022-12-14T09:19:10.621Z,83.90
2022-12-14T09:21:40.420Z,83.70
2022-12-14T09:24:08.871Z,83.60
2022-12-14T09:26:37.313Z,83.60
2022-12-14T09:29:05.670Z,83.30
2022-12-14T09:31:34.022Z,83.00
2022-12-14T09:34:02.244Z,82.90
2022-12-14T09:36:30.681Z,82.90
2022-12-14T09:39:00.595Z,82.50
2022-12-14T09:41:51.793Z,82.90
2022-12-14T09:44:32.722Z,83.20
2022-12-14T09:47:07.650Z,82.30
2022-12-14T09:49:42.631Z,82.30
2022-12-14T09:52:16.983Z,81.80
2022-12-14T09:54:49.943Z,81.90
2022-12-14T09:57:27.188Z,81.20
2022-12-14T09:59:55.638Z,81.60
2022-12-14T10:02:38.560Z,81.60
2022-12-14T10:05:34.918Z,81.00
2022-12-14T10:08:09.364Z,80.80
2022-12-14T10:10:48.215Z,81.70
2022-12-14T10:13:29.174Z,81.90
2022-12-14T10:16:11.632Z,81.90
2022-12-14T10:19:03.422Z,81.60
2022-12-14T10:21:50.980Z,81.30
2022-12-14T10:24:23.377Z,81.30
2022-12-14T10:26:55.858Z,81.80
2022-12-14T10:29:31.590Z,81.80
2022-12-14T10:32:15.060Z,81.80
2022-12-14T10:34:44.717Z,82.10
2022-12-14T10:37:25.717Z,81.70
2022-12-14T10:40:28.881Z,81.70
2022-12-14T10:43:18.408Z,81.80
2022-12-14T10:45:53.241Z,81.30
2022-12-14T10:48:34.067Z,80.90
2022-12-14T10:51:07.287Z,81.00
2022-12-14T10:53:41.349Z,80.20
2022-12-14T10:56:17.788Z,80.20
2022-12-14T10:59:25.460Z,80.50
2022-12-14T11:01:58.558Z,80.00
2022-12-14T11:04:33.981Z,79.90
2022-12-14T11:07:05.051Z,79.90
2022-12-14T11:09:33.556Z,80.10
2022-12-14T11:12:05.452Z,79.90
2022-12-14T11:14:36.894Z,80.50
2022-12-14T11:17:05.865Z,80.70
2022-12-14T11:19:34.260Z,80.80
2022-12-14T11:22:20.318Z,81.10
2022-12-14T11:24:51.404Z,81.10
2022-12-14T11:27:22.458Z,81.00
2022-12-14T11:29:52.716Z,81.20
2022-12-14T11:32:24.875Z,81.50
2022-12-14T11:35:00.279Z,81.60
2022-12-14T11:37:30.709Z,81.50
2022-12-14T11:40:01.611Z,81.50
2022-12-14T11:42:30.464Z,81.70
2022-12-14T11:45:30.612Z,81.80
2022-12-14T11:48:20.064Z,81.90
2022-12-14T11:50:50.476Z,82.20
2022-12-14T11:53:20.721Z,82.50
2022-12-14T11:55:53.948Z,82.50
2022-12-14T11:58:26.501Z,82.70
2022-12-14T12:01:02.177Z,83.60
2022-12-14T12:03:42.812Z,83.10
2022-12-14T12:06:14.659Z,83.00
2022-12-14T12:08:44.799Z,83.10
2022-12-14T12:11:19.421Z,83.20
2022-12-14T12:14:31.875Z,83.30
2022-12-14T12:17:01.791Z,83.20
2022-12-14T12:19:35.083Z,83.30
2022-12-14T12:22:31.668Z,83.40
2022-12-14T12:27:47.832Z,83.70
2022-12-14T12:30:28.539Z,83.70
2022-12-14T12:33:03.703Z,84.10
2022-12-14T12:35:38.104Z,84.40
2022-12-14T12:38:13.684Z,84.40
2022-12-14T12:40:54.168Z,84.70
2022-12-14T12:43:27.803Z,84.80
2022-12-14T12:46:00.633Z,85.10
2022-12-14T12:48:36.240Z,85.50
2022-12-14T12:51:09.103Z,85.60
2022-12-14T12:53:45.548Z,85.80
2022-12-14T12:56:18.337Z,86.10
2022-12-14T12:58:52.650Z,86.30
2022-12-14T13:01:27.286Z,86.10
2022-12-14T13:04:00.553Z,86.60
2022-12-14T13:06:33.073Z,86.50
2022-12-14T13:09:08.411Z,86.60
2022-12-14T13:11:39.439Z,86.50
2022-12-14T13:14:18.832Z,86.70
2022-12-14T13:16:48.802Z,87.10
2022-12-14T13:19:49.882Z,87.30
2022-12-14T13:22:15.064Z,87.80
2022-12-14T13:24:47.296Z,87.90
2022-12-14T13:27:45.003Z,88.00
2022-12-14T13:30:23.210Z,88.20
2022-12-14T13:33:06.244Z,88.30
2022-12-14T13:35:50.976Z,88.40
2022-12-14T13:38:43.185Z,88.30
2022-12-14T13:41:29.356Z,88.30
2022-12-14T13:44:34.781Z,88.80
2022-12-14T13:47:16.047Z,88.50
2022-12-14T13:50:26.827Z,89.00
2022-12-14T13:52:47.617Z,88.80
2022-12-14T13:55:27.221Z,88.60
2022-12-14T13:58:06.767Z,89.30
2022-12-14T14:00:52.057Z,89.40
2022-12-14T14:03:47.209Z,89.50
2022-12-14T14:06:37.793Z,89.40
2022-12-14T14:09:43.421Z,89.70
2022-12-14T14:12:34.001Z,90.20
2022-12-14T14:15:22.745Z,90.20
2022-12-14T14:17:56.198Z,90.60
2022-12-14T14:20:38.676Z,90.20
2022-12-14T14:23:40.633Z,90.20
2022-12-14T14:26:28.563Z,90.10
2022-12-14T14:29:23.879Z,90.60
2022-12-14T14:31:58.189Z,90.70
2022-12-14T14:34:39.252Z,90.40
2022-12-14T14:37:35.393Z,90.40
2022-12-14T14:40:20.928Z,90.60
2022-12-14T14:43:00.462Z,90.60
2022-12-14T14:45:37.984Z,90.60
2022-12-14T14:48:13.145Z,90.60
2022-12-14T14:50:43.672Z,90.70
2022-12-14T14:53:30.863Z,90.70
2022-12-14T14:56:12.364Z,90.80
2022-12-14T14:58:42.178Z,90.80
2022-12-14T15:01:26.763Z,90.70
2022-12-14T15:03:58.349Z,90.80
2022-12-14T15:06:29.643Z,90.70
2022-12-14T15:09:05.575Z,90.70
2022-12-14T15:11:43.891Z,90.70
2022-12-14T15:14:29.594Z,90.70
2022-12-14T15:16:59.278Z,91.10
2022-12-14T15:19:33.443Z,90.80
2022-12-14T15:22:05.431Z,90.70
2022-12-14T15:24:39.051Z,90.90
2022-12-14T15:27:13.883Z,90.80
2022-12-14T15:29:44.838Z,90.80
2022-12-14T15:32:22.381Z,90.80
2022-12-14T15:34:56.003Z,90.90
2022-12-14T15:37:29.893Z,90.80
2022-12-14T15:40:13.139Z,90.80
2022-12-14T15:42:48.002Z,90.90
2022-12-14T15:45:19.022Z,90.90
2022-12-14T15:47:53.428Z,90.80
2022-12-14T15:50:28.171Z,90.90
2022-12-14T15:52:59.109Z,91.00
2022-12-14T15:55:36.361Z,91.20
2022-12-14T15:58:11.122Z,91.20
2022-12-14T16:00:43.767Z,91.20
2022-12-14T16:03:24.750Z,91.20
2022-12-14T16:05:53.314Z,91.20
2022-12-14T16:08:22.685Z,91.30
2022-12-14T16:10:52.589Z,91.40
2022-12-14T16:13:24.907Z,91.60
2022-12-14T16:15:54.663Z,91.50
2022-12-14T16:18:25.485Z,91.70
2022-12-14T16:20:59.157Z,92.00
2022-12-14T16:23:31.969Z,92.00
2022-12-14T16:26:05.176Z,91.90
2022-12-14T16:28:35.369Z,92.00
2022-12-14T16:31:06.023Z,92.00
2022-12-14T16:33:37.387Z,92.20
2022-12-14T16:36:08.755Z,92.20
2022-12-14T16:38:42.235Z,92.30
2022-12-14T16:41:10.986Z,92.30
2022-12-14T16:43:41.393Z,92.20
2022-12-14T16:46:18.577Z,92.70
2022-12-14T16:49:07.931Z,92.60
2022-12-14T16:54:31.016Z,92.60
2022-12-14T16:57:06.671Z,92.90
2022-12-14T16:59:41.401Z,92.90
2022-12-14T17:02:28.479Z,92.80
2022-12-14T17:04:59.838Z,92.80
2022-12-14T17:07:30.915Z,92.70
2022-12-14T17:09:59.314Z,92.80
2022-12-14T17:12:28.188Z,93.00
2022-12-14T17:14:56.461Z,92.90
2022-12-14T17:17:33.327Z,93.00
2022-12-14T17:20:07.877Z,92.90
2022-12-14T17:22:37.611Z,92.90
2022-12-14T17:25:06.571Z,92.90
2022-12-14T17:27:35.301Z,92.90
2022-12-14T17:30:14.947Z,92.80
2022-12-14T17:32:43.754Z,92.80
2022-12-14T17:35:19.419Z,92.70
2022-12-14T17:37:49.196Z,92.70
2022-12-14T17:40:18.069Z,92.90
2022-12-14T17:42:52.074Z,92.80
2022-12-14T17:45:23.371Z,92.70
2022-12-14T17:47:51.672Z,92.60
2022-12-14T17:50:21.835Z,92.60
2022-12-14T17:52:56.225Z,92.70
2022-12-14T17:55:26.005Z,92.70
2022-12-14T17:57:54.588Z,92.60
2022-12-14T18:00:42.272Z,92.60
2022-12-14T18:03:11.910Z,92.70
2022-12-14T18:05:48.328Z,92.90
2022-12-14T18:08:17.223Z,92.90
2022-12-14T18:10:46.035Z,93.00
2022-12-14T18:13:17.850Z,93.10
2022-12-14T18:15:49.903Z,93.20
2022-12-14T18:18:23.383Z,93.30
2022-12-14T18:20:56.384Z,93.20
2022-12-14T18:23:25.145Z,93.30
2022-12-14T18:25:55.238Z,93.20
2022-12-14T18:28:23.871Z,93.20
2022-12-14T18:30:55.900Z,93.30
2022-12-14T18:33:26.309Z,93.30
2022-12-14T18:35:57.667Z,93.30
2022-12-14T18:38:26.722Z,93.20
2022-12-14T18:40:58.615Z,93.30
2022-12-14T18:43:29.167Z,93.40
2022-12-14T18:45:58.016Z,93.40
2022-12-14T18:48:27.130Z,93.50
2022-12-14T18:50:57.369Z,93.50
2022-12-14T18:53:26.820Z,93.60
2022-12-14T18:55:55.741Z,93.60
2022-12-14T18:58:25.552Z,93.90
2022-12-14T19:00:56.775Z,93.80
2022-12-14T19:03:26.095Z,93.70
2022-12-14T19:06:34.868Z,93.80
2022-12-14T19:08:53.845Z,93.80
2022-12-14T19:11:30.030Z,93.90
2022-12-14T19:13:58.395Z,94.00
2022-12-14T19:16:26.824Z,94.20
2022-12-14T19:18:55.144Z,94.10
2022-12-14T19:21:25.452Z,94.10
2022-12-14T19:23:53.746Z,94.10
2022-12-14T19:26:22.276Z,94.10
2022-12-14T19:28:50.621Z,94.10
2022-12-14T19:31:20.029Z,94.20
2022-12-14T19:33:48.587Z,94.00
2022-12-14T19:36:16.948Z,94.10
2022-12-14T19:38:49.064Z,94.00
2022-12-14T19:41:20.571Z,93.90
2022-12-14T19:43:50.499Z,93.80
2022-12-14T19:46:18.819Z,93.80
2022-12-14T19:48:47.135Z,93.80
2022-12-14T19:51:15.529Z,93.80
2022-12-14T19:53:45.433Z,93.70
2022-12-14T19:56:18.290Z,93.80
2022-12-14T19:58:47.730Z,93.90
2022-12-14T20:01:18.061Z,93.90
2022-12-14T20:03:46.568Z,93.90
2022-12-14T20:06:14.904Z,93.90
2022-12-14T20:08:43.200Z,94.00
2022-12-14T20:11:12.788Z,94.00
2022-12-14T20:13:42.495Z,94.00
2022-12-14T20:16:17.651Z,94.20
2022-12-14T20:18:46.156Z,94.30
2022-12-14T20:21:21.624Z,94.30
2022-12-14T20:23:50.846Z,94.40
2022-12-14T20:26:21.185Z,94.30
2022-12-14T20:28:52.943Z,94.40
2022-12-14T20:31:22.467Z,94.50
2022-12-14T20:33:51.304Z,94.50
2022-12-14T20:36:22.123Z,94.40
2022-12-14T20:38:56.106Z,94.30
2022-12-14T20:41:24.891Z,94.20
2022-12-14T20:43:54.737Z,94.20
2022-12-14T20:46:29.447Z,94.30
2022-12-14T20:49:00.939Z,94.40
2022-12-14T20:51:30.807Z,94.30
2022-12-14T20:53:59.341Z,94.30
2022-12-14T20:56:27.929Z,94.20
2022-12-14T20:58:57.693Z,94.30
2022-12-14T21:01:26.185Z,94.30
2022-12-14T21:03:54.908Z,94.30
2022-12-14T21:06:24.513Z,94.30
2022-12-14T21:09:09.798Z,94.40
2022-12-14T21:11:57.515Z,94.30
2022-12-14T21:14:29.703Z,94.30
2022-12-14T21:16:58.629Z,94.20
2022-12-14T21:19:27.233Z,94.10
2022-12-14T21:21:55.717Z,94.30
2022-12-14T21:25:00.502Z,94.30
2022-12-14T21:27:17.684Z,94.20
2022-12-14T21:29:48.035Z,94.10
2022-12-14T21:32:18.252Z,94.10
2022-12-14T21:34:47.225Z,94.20
2022-12-14T21:37:16.541Z,94.30
2022-12-14T21:39:51.887Z,94.20
2022-12-14T21:42:22.015Z,94.10
2022-12-14T21:44:53.983Z,94.10
2022-12-14T21:47:25.161Z,94.40
2022-12-14T21:49:53.968Z,94.30
2022-12-14T21:52:24.851Z,94.30
2022-12-14T21:54:53.193Z,94.30
2022-12-14T21:57:40.867Z,94.30
2022-12-14T22:00:12.045Z,94.40
2022-12-14T22:02:41.863Z,94.70
2022-12-14T22:05:11.139Z,94.90
2022-12-14T22:07:39.459Z,94.80
2022-12-14T22:10:08.389Z,94.80
2022-12-14T22:12:36.648Z,94.80
2022-12-14T22:15:05.314Z,94.80
2022-12-14T22:17:34.986Z,94.90
2022-12-14T22:20:03.498Z,94.80
2022-12-14T22:22:31.721Z,95.40
2022-12-14T22:25:00.481Z,95.00
2022-12-14T22:27:29.091Z,95.10
2022-12-14T22:29:57.349Z,95.40
2022-12-14T22:32:26.257Z,95.40
2022-12-14T22:34:55.918Z,95.40
2022-12-14T22:37:24.162Z,95.50
2022-12-14T22:39:52.454Z,95.80
2022-12-14T22:42:20.767Z,95.70
2022-12-14T22:44:50.082Z,95.80
2022-12-14T22:47:18.655Z,95.90
2022-12-14T22:49:47.194Z,95.90
2022-12-14T22:52:22.858Z,96.20
2022-12-14T22:54:54.161Z,96.20
2022-12-14T22:57:23.102Z,96.10
2022-12-14T22:59:56.108Z,96.20
2022-12-14T23:02:25.071Z,96.00
2022-12-14T23:04:53.523Z,96.30
2022-12-14T23:07:23.321Z,96.30
2022-12-14T23:10:09.049Z,96.50
2022-12-14T23:12:54.477Z,96.50
2022-12-14T23:15:39.896Z,96.50
2022-12-14T23:18:27.003Z,96.50
2022-12-14T23:21:16.219Z,96.50
2022-12-14T23:24:04.236Z,96.70
2022-12-14T23:26:50.297Z,96.80
2022-12-14T23:29:35.912Z,96.80
2022-12-14T23:32:21.580Z,96.80
2022-12-14T23:35:07.490Z,96.90
2022-12-14T23:37:53.668Z,96.90
2022-12-14T23:40:40.798Z,96.80
2022-12-14T23:43:28.342Z,97.30
2022-12-14T23:46:14.047Z,97.50
2022-12-14T23:48:59.846Z,97.60
2022-12-14T23:51:45.977Z,97.50
2022-12-14T23:54:31.931Z,97.30
2022-12-14T23:57:18.801Z,97.30
